Pays
Station

 

Conditions  météo  pour  Yinchuan  -  Chine    Chine

  
28 °C
    
 
 

METAR pour Yinchuan :

ZLIC 240800Z 01005MPS 340V040 CAVOK 28/05 Q1013 BECMG TL0845 BLDU

 

Voici le bulletin pour Yinchuan - Chine.
 
Le bulletin a été fait il y a 478 heures et 7 minutes, à 08:00 UTC .
Le vent soufflait à la vitesse de 5 mètres par seconde de Nord (010°), variant entre Nord/Nord-ouest (340°) et Nord-est (040°).
 
La température était de 28 °C, avec un point de rosée à 5 °C.
La température ressentie était de 27 °C.
 
La pression atmosphérique était de 1013 hPa.
L'humidité relative était de 23.1%.
 
Il y avait pas de nuages en-dessous de 1500 mètres et pas de cumulonimbus.
 
La visibilité globale était de supérieure à 10 kilomètres.
 

 
 
 

Pays :   A   B   C   D   E   F   G   H   I   J   K   L   M   N   O   P   Q   R   S   T   U   V   W   Y   Z

 

Partenaires :  Info Météo avec Met'info
Météo Marine avec MeteoMarine.net
Infos Site  |  Infos Légales  |  Crédits  |  Confidentialité
Contactez-nous  |  Ajouter aux favoris
© 2013-2017 METAR - Tous droits réservés